Airfield :
LOGIN :

Register | Disclaimer

   EN    FR    IT 

 










Legend :    VFR   Marginal VFR   IFR   Intensive IFR   Very Intensive IFR
Visi :
Ceiling :
>= 8 km
>= 3000ft
5 to 8 km
1000 to 3000 ft
1500m to 5 km
500 to 1000 ft
800 to 1500m
200 to 500 ft
< 800m
< 200 ft
Symbols :   Thunderstorms  Fog  Heavy snow  Heavy precipitations  Wind > 20 kt
SIGMETs :     Misc.  Thunderstorms  Icing  Turbulence  Mountain Waves  Volcanic Ashes







- Airport Elevation : -15 ft
- IATA code : RTM


EHRD - Rotterdam Zestienhoven

CURRENT METAR :
  • 240625Z AUTO 04004KT 9999 NSC 14/09 Q1024 NOSIG

EXPIRED METARs :
  • 240555Z AUTO 03003KT 340V080 9999 NSC 13/09 Q1024 NOSIG
  • 240525Z AUTO 03003KT 340V070 9999 NSC 13/10 Q1024 NOSIG
  • 240455Z AUTO 02002KT 9999 FEW017 SCT022 12/11 Q1024 NOSIG
  • 240425Z AUTO VRB02KT 9999 NSC 11/11 Q1023 NOSIG
  • 240355Z AUTO VRB01KT 9999 FEW016 BKN022 11/11 Q1023 NOSIG

TAF TAF EHRD
Valid from the 24 at 06:00 until the 25 at 12:00 UTC


240437Z 2406/2512 35005KT 9999 FEW020
BECMG 2408/2411 34010KT
BECMG 2418/2421 35005KT
TEMPO 2421/2507 BKN018
PROB30
TEMPO 2501/2505 6000 SCT007 BKN012
BECMG 2508/2511 32009KT
No reported NOTAMs for that airfield.



MET'MAP, your aeronautical weather chart ! - Copyright ORBIFLY December 2007 - Disclaimer

ORBIFLY MET'MAP TEAM :

Programming & Development : Alexandra Zaïnal
Concept & Development : Baudouin d'Aumeries
Co-Development & Prog : Marc-Olivier Méhu
Technical & hardware support : Manuel Goepfert

Contact : metmap@orbifly.com




SOURCES & CREDITS :

   NOAA